createdAt,value
2019-05-10T00:01:27.673Z,69.20
2019-05-10T00:04:17.576Z,69.30
2019-05-10T00:07:07.328Z,69.30
2019-05-10T00:09:38.689Z,69.20
2019-05-10T00:12:26.147Z,69.40
2019-05-10T00:14:58.485Z,69.40
2019-05-10T00:17:30.841Z,69.50
2019-05-10T00:20:05.712Z,69.60
2019-05-10T00:22:37.935Z,69.60
2019-05-10T00:25:10.346Z,69.70
2019-05-10T00:27:42.632Z,69.70
2019-05-10T00:30:15.072Z,70.00
2019-05-10T00:32:47.512Z,70.00
2019-05-10T00:35:19.962Z,70.00
2019-05-10T00:37:52.116Z,70.00
2019-05-10T00:40:24.369Z,70.10
2019-05-10T00:42:56.545Z,70.20
2019-05-10T00:45:28.820Z,70.30
2019-05-10T00:48:01.145Z,70.40
2019-05-10T00:50:33.339Z,70.60
2019-05-10T00:53:05.845Z,70.60
2019-05-10T00:55:38.104Z,70.60
2019-05-10T00:58:10.330Z,70.50
2019-05-10T01:00:42.650Z,70.60
2019-05-10T01:03:15.008Z,70.30
2019-05-10T01:05:47.232Z,70.20
2019-05-10T01:08:19.476Z,70.20
2019-05-10T01:10:52.104Z,70.10
2019-05-10T01:13:24.286Z,70.10
2019-05-10T01:15:56.596Z,70.10
2019-05-10T01:18:28.813Z,70.00
2019-05-10T01:21:02.140Z,69.90
2019-05-10T01:23:34.376Z,69.90
2019-05-10T01:26:06.634Z,70.00
2019-05-10T01:28:38.799Z,70.10
2019-05-10T01:31:11.085Z,69.90
2019-05-10T01:33:44.365Z,70.00
2019-05-10T01:36:16.555Z,70.20
2019-05-10T01:38:48.761Z,70.00
2019-05-10T01:41:21.185Z,69.90
2019-05-10T01:43:53.510Z,69.70
2019-05-10T01:46:25.848Z,69.60
2019-05-10T01:48:58.074Z,69.30
2019-05-10T01:51:30.313Z,69.10
2019-05-10T01:54:02.541Z,69.00
2019-05-10T01:56:34.870Z,69.00
2019-05-10T01:59:08.153Z,69.20
2019-05-10T02:01:40.317Z,69.20
2019-05-10T02:04:12.538Z,69.30
2019-05-10T02:06:44.937Z,69.30
2019-05-10T02:09:17.230Z,69.30
2019-05-10T02:11:49.429Z,69.40
2019-05-10T02:14:21.810Z,69.40
2019-05-10T02:16:54.114Z,69.40
2019-05-10T02:19:26.442Z,69.30
2019-05-10T02:21:59.552Z,69.30
2019-05-10T02:24:31.746Z,69.20
2019-05-10T02:27:04.040Z,69.10
2019-05-10T02:29:36.220Z,69.00
2019-05-10T02:32:08.531Z,69.10
2019-05-10T02:34:40.732Z,69.80
2019-05-10T02:37:12.941Z,69.00
2019-05-10T02:39:45.238Z,69.00
2019-05-10T02:42:17.563Z,69.00
2019-05-10T02:44:49.883Z,68.80
2019-05-10T02:47:23.023Z,68.60
2019-05-10T02:49:58.888Z,68.90
2019-05-10T02:52:29.070Z,68.90
2019-05-10T02:55:01.301Z,68.80
2019-05-10T02:57:34.943Z,68.70
2019-05-10T03:00:08.018Z,68.70
2019-05-10T03:02:41.042Z,68.70
2019-05-10T03:05:14.902Z,68.70
2019-05-10T03:07:50.264Z,68.80
2019-05-10T03:10:22.680Z,68.90
2019-05-10T03:12:57.342Z,68.80
2019-05-10T03:15:35.565Z,68.80
2019-05-10T03:18:07.979Z,68.90
2019-05-10T03:20:40.253Z,68.80
2019-05-10T03:23:12.593Z,68.70
2019-05-10T03:25:44.821Z,68.80
2019-05-10T03:28:17.926Z,68.70
2019-05-10T03:30:50.147Z,68.70
2019-05-10T03:33:22.387Z,68.60
2019-05-10T03:35:54.629Z,68.60
2019-05-10T03:38:26.933Z,68.80
2019-05-10T03:40:59.200Z,68.80
2019-05-10T03:43:31.509Z,68.60
2019-05-10T03:46:03.727Z,68.60
2019-05-10T03:48:35.936Z,69.40
2019-05-10T03:51:08.519Z,68.70
2019-05-10T03:53:40.782Z,68.60
2019-05-10T03:56:13.031Z,68.70
2019-05-10T03:58:45.316Z,68.60
2019-05-10T04:01:17.623Z,68.60
2019-05-10T04:03:49.985Z,68.60
2019-05-10T04:06:22.293Z,68.60
2019-05-10T04:08:54.503Z,68.60
2019-05-10T04:11:26.968Z,68.60
2019-05-10T04:13:59.125Z,68.40
2019-05-10T04:16:31.346Z,68.50
2019-05-10T04:19:04.626Z,68.40
2019-05-10T04:21:36.782Z,68.40
2019-05-10T04:24:09.086Z,68.40
2019-05-10T04:26:41.342Z,68.40
2019-05-10T04:29:13.709Z,68.40
2019-05-10T04:31:46.119Z,68.40
2019-05-10T04:34:18.459Z,68.40
2019-05-10T04:36:51.529Z,68.50
2019-05-10T04:39:23.873Z,68.40
2019-05-10T04:41:56.073Z,68.40
2019-05-10T04:44:28.345Z,68.30
2019-05-10T04:47:00.541Z,68.10
2019-05-10T04:49:33.786Z,67.90
2019-05-10T04:52:06.017Z,67.80
2019-05-10T04:54:38.279Z,67.90
2019-05-10T04:57:10.644Z,68.10
2019-05-10T04:59:42.853Z,68.00
2019-05-10T05:02:15.099Z,67.90
2019-05-10T05:04:47.323Z,67.90
2019-05-10T05:07:19.700Z,67.80
2019-05-10T05:09:52.918Z,67.40
2019-05-10T05:12:25.183Z,67.30
2019-05-10T05:14:57.504Z,67.30
2019-05-10T05:17:29.730Z,67.40
2019-05-10T05:20:02.062Z,67.30
2019-05-10T05:22:34.300Z,67.10
2019-05-10T05:25:06.884Z,67.30
2019-05-10T05:27:39.138Z,67.30
2019-05-10T05:30:11.378Z,67.30
2019-05-10T05:32:44.416Z,67.10
2019-05-10T05:35:17.753Z,67.30
2019-05-10T05:37:49.909Z,67.80
2019-05-10T05:40:22.176Z,67.10
2019-05-10T05:42:54.424Z,67.30
2019-05-10T05:45:28.219Z,67.20
2019-05-10T05:48:00.685Z,67.00
2019-05-10T05:50:32.890Z,66.80
2019-05-10T05:53:05.065Z,66.70
2019-05-10T05:55:37.403Z,66.70
2019-05-10T05:58:25.393Z,66.80
2019-05-10T06:00:46.755Z,66.90
2019-05-10T06:03:27.111Z,66.80
2019-05-10T06:05:53.036Z,66.90
2019-05-10T06:08:25.335Z,66.80
2019-05-10T06:10:59.991Z,66.50
2019-05-10T06:13:32.536Z,66.50
2019-05-10T06:16:12.087Z,66.60
2019-05-10T06:18:41.660Z,66.30
2019-05-10T06:21:17.866Z,66.20
2019-05-10T06:23:46.877Z,66.20
2019-05-10T06:26:26.490Z,66.30
2019-05-10T06:29:04.227Z,65.70
2019-05-10T06:31:27.490Z,65.50
2019-05-10T06:33:59.733Z,65.20
2019-05-10T06:36:32.020Z,64.70
2019-05-10T06:39:06.433Z,64.60
2019-05-10T06:41:38.610Z,64.40
2019-05-10T06:46:44.670Z,64.60
2019-05-10T06:49:16.992Z,64.20
2019-05-10T06:51:50.980Z,63.70
2019-05-10T06:54:23.433Z,63.60
2019-05-10T06:56:55.576Z,63.10
2019-05-10T06:59:27.648Z,62.90
2019-05-10T07:01:59.925Z,62.20
2019-05-10T07:04:36.078Z,62.40
2019-05-10T07:07:10.252Z,62.50
2019-05-10T07:10:01.433Z,61.90
2019-05-10T07:12:17.900Z,62.50
2019-05-10T07:14:48.830Z,62.80
2019-05-10T07:17:21.157Z,62.70
2019-05-10T07:19:55.289Z,62.70
2019-05-10T07:22:28.982Z,61.80
2019-05-10T07:25:04.338Z,61.40
2019-05-10T07:27:36.592Z,61.60
2019-05-10T07:30:09.331Z,59.90
2019-05-10T07:32:41.447Z,58.90
2019-05-10T07:35:13.848Z,58.90
2019-05-10T07:37:47.644Z,58.70
2019-05-10T07:40:20.110Z,57.90
2019-05-10T07:42:52.324Z,58.30
2019-05-10T07:45:25.582Z,59.40
2019-05-10T07:48:02.378Z,58.80
2019-05-10T07:50:33.749Z,58.40
2019-05-10T07:53:06.086Z,58.00
2019-05-10T07:55:38.319Z,58.60
2019-05-10T07:58:10.644Z,58.20
2019-05-10T08:00:44.606Z,57.80
2019-05-10T08:03:22.733Z,57.20
2019-05-10T08:05:55.036Z,56.20
2019-05-10T08:08:24.611Z,56.30
2019-05-10T08:10:59.211Z,56.80
2019-05-10T08:13:30.669Z,56.70
2019-05-10T08:16:05.295Z,56.80
2019-05-10T08:18:36.886Z,56.70
2019-05-10T08:21:18.742Z,56.60
2019-05-10T08:23:43.840Z,56.70
2019-05-10T08:26:21.960Z,56.10
2019-05-10T08:28:52.365Z,56.40
2019-05-10T08:31:26.439Z,56.30
2019-05-10T08:33:59.183Z,56.20
2019-05-10T08:36:32.263Z,56.10
2019-05-10T08:39:10.706Z,56.00
2019-05-10T08:41:42.903Z,55.00
2019-05-10T08:44:19.464Z,53.90
2019-05-10T08:46:48.985Z,54.10
2019-05-10T08:49:25.656Z,53.50
2019-05-10T08:51:55.280Z,53.10
2019-05-10T08:54:27.582Z,50.80
2019-05-10T08:59:54.172Z,49.30
2019-05-10T09:02:29.230Z,50.30
2019-05-10T09:04:57.967Z,50.10
2019-05-10T09:07:36.961Z,49.30
2019-05-10T09:10:04.351Z,49.30
2019-05-10T09:12:41.835Z,49.40
2019-05-10T09:15:13.305Z,49.00
2019-05-10T09:17:44.801Z,49.00
2019-05-10T09:20:25.499Z,49.70
2019-05-10T09:22:52.864Z,50.10
2019-05-10T09:25:29.547Z,49.80
2019-05-10T09:28:02.466Z,49.30
2019-05-10T09:30:35.546Z,48.80
2019-05-10T09:33:09.205Z,48.70
2019-05-10T09:35:46.920Z,49.10
2019-05-10T09:38:15.871Z,48.40
2019-05-10T09:40:52.994Z,48.20
2019-05-10T09:43:24.323Z,48.40
2019-05-10T09:45:56.625Z,48.00
2019-05-10T09:48:29.778Z,48.50
2019-05-10T09:51:04.216Z,48.90
2019-05-10T09:53:38.323Z,47.60
2019-05-10T09:56:10.435Z,47.90
2019-05-10T09:58:42.708Z,47.70
2019-05-10T10:01:21.234Z,47.40
2019-05-10T10:03:48.849Z,46.50
2019-05-10T10:06:21.643Z,45.80
2019-05-10T10:08:53.952Z,44.90
2019-05-10T10:11:27.784Z,45.20
2019-05-10T10:14:02.195Z,44.90
2019-05-10T10:16:34.230Z,44.80
2019-05-10T10:19:07.252Z,44.20
2019-05-10T10:21:40.616Z,43.70
2019-05-10T10:24:17.327Z,44.40
2019-05-10T10:26:48.163Z,43.80
2019-05-10T10:29:20.617Z,44.10
2019-05-10T10:31:55.732Z,43.10
2019-05-10T10:34:27.292Z,43.30
2019-05-10T10:37:01.504Z,44.00
2019-05-10T10:39:33.818Z,43.90
2019-05-10T10:42:08.738Z,42.30
2019-05-10T10:44:44.964Z,43.20
2019-05-10T10:47:18.006Z,43.50
2019-05-10T10:49:50.363Z,44.10
2019-05-10T10:52:22.836Z,42.60
2019-05-10T10:54:55.030Z,42.40
2019-05-10T10:57:27.905Z,42.30
2019-05-10T11:00:00.252Z,41.00
2019-05-10T11:02:34.055Z,41.30
2019-05-10T11:05:08.750Z,41.00
2019-05-10T11:07:44.500Z,40.60
2019-05-10T11:10:21.603Z,39.90
2019-05-10T11:12:56.373Z,40.40
2019-05-10T11:15:28.962Z,40.90
2019-05-10T11:18:00.583Z,39.60
2019-05-10T11:20:32.961Z,40.00
2019-05-10T11:23:05.289Z,39.40
2019-05-10T11:25:42.798Z,39.50
2019-05-10T11:28:12.041Z,38.80
2019-05-10T11:30:45.538Z,39.30
2019-05-10T11:33:27.190Z,39.10
2019-05-10T11:35:51.942Z,39.50
2019-05-10T11:38:24.232Z,38.50
2019-05-10T11:40:56.483Z,39.50
2019-05-10T11:43:31.357Z,40.10
2019-05-10T11:46:03.722Z,39.40
2019-05-10T11:48:37.322Z,40.10
2019-05-10T11:51:15.352Z,40.50
2019-05-10T11:53:49.076Z,40.50
2019-05-10T11:56:23.666Z,40.20
2019-05-10T11:59:05.057Z,40.20
2019-05-10T12:01:27.450Z,39.40
2019-05-10T12:04:02.121Z,39.20
2019-05-10T12:06:33.658Z,39.00
2019-05-10T12:09:07.330Z,38.80
2019-05-10T12:11:43.645Z,39.50
2019-05-10T12:14:13.925Z,37.90
2019-05-10T12:16:46.345Z,38.90
2019-05-10T12:19:21.165Z,38.40
2019-05-10T12:21:55.996Z,38.00
2019-05-10T12:26:58.550Z,37.80
2019-05-10T12:27:24.789Z,37.90
2019-05-10T12:29:35.695Z,37.60
2019-05-10T12:32:10.276Z,37.40
2019-05-10T12:34:45.925Z,37.30
2019-05-10T12:37:16.705Z,36.70
2019-05-10T12:39:52.936Z,36.30
2019-05-10T12:42:22.894Z,36.50
2019-05-10T12:44:55.934Z,36.50
2019-05-10T12:47:30.573Z,37.00
2019-05-10T12:50:03.579Z,36.50
2019-05-10T12:52:37.087Z,36.50
2019-05-10T12:55:09.905Z,35.70
2019-05-10T13:00:06.654Z,35.40
2019-05-10T13:02:39.468Z,35.20
2019-05-10T13:05:15.201Z,35.10
2019-05-10T13:07:45.814Z,34.90
2019-05-10T13:10:19.361Z,34.70
2019-05-10T13:12:51.674Z,34.10
2019-05-10T13:15:24.784Z,35.00
2019-05-10T13:17:57.983Z,34.30
2019-05-10T13:20:30.880Z,33.00
2019-05-10T13:23:04.405Z,34.20
2019-05-10T13:25:36.686Z,33.40
2019-05-10T13:28:11.466Z,32.60
2019-05-10T13:30:42.998Z,33.70
2019-05-10T13:33:28.009Z,34.00
2019-05-10T13:35:50.737Z,34.00
2019-05-10T13:38:24.329Z,33.80
2019-05-10T13:40:56.533Z,33.80
2019-05-10T13:43:28.814Z,34.00
2019-05-10T13:46:01.065Z,33.30
2019-05-10T13:48:33.387Z,33.10
2019-05-10T13:51:05.573Z,32.20
2019-05-10T13:53:38.765Z,32.50
2019-05-10T13:56:11.009Z,31.80
2019-05-10T13:58:43.257Z,32.00
2019-05-10T14:01:15.786Z,32.50
2019-05-10T14:03:53.852Z,32.80
2019-05-10T14:06:21.893Z,32.90
2019-05-10T14:08:54.179Z,32.50
2019-05-10T14:11:26.369Z,32.20
2019-05-10T14:13:58.679Z,32.60
2019-05-10T14:16:30.874Z,32.40
2019-05-10T14:19:03.182Z,32.70
2019-05-10T14:21:35.578Z,33.00
2019-05-10T14:24:09.288Z,32.70
2019-05-10T14:26:42.885Z,33.00
2019-05-10T14:29:15.538Z,32.60
2019-05-10T14:31:47.995Z,33.00
2019-05-10T14:34:20.358Z,33.40
2019-05-10T14:36:52.540Z,33.40
2019-05-10T14:39:24.937Z,33.40
2019-05-10T14:41:57.348Z,32.60
2019-05-10T14:44:29.610Z,32.30
2019-05-10T14:47:03.050Z,32.80
2019-05-10T14:49:35.337Z,32.80
2019-05-10T14:52:07.718Z,32.00
2019-05-10T14:54:43.886Z,32.50
2019-05-10T14:57:14.806Z,32.70
2019-05-10T14:59:49.096Z,33.10
2019-05-10T15:02:22.651Z,31.90
2019-05-10T15:04:55.465Z,31.80
2019-05-10T15:07:27.969Z,32.40
2019-05-10T15:10:02.321Z,31.80
2019-05-10T15:12:34.340Z,31.80
2019-05-10T15:15:06.971Z,32.20
2019-05-10T15:17:39.086Z,32.10
2019-05-10T15:20:11.434Z,32.40
2019-05-10T15:22:43.788Z,32.00
2019-05-10T15:25:16.801Z,31.70
2019-05-10T15:27:48.954Z,32.00
2019-05-10T15:30:21.466Z,32.60
2019-05-10T15:32:53.722Z,32.30
2019-05-10T15:35:26.354Z,33.00
2019-05-10T15:37:58.545Z,32.70
2019-05-10T15:40:30.779Z,33.10
2019-05-10T15:43:03.303Z,33.20
2019-05-10T15:45:35.694Z,33.40
2019-05-10T15:48:08.082Z,33.00
2019-05-10T15:50:41.158Z,33.60
2019-05-10T15:53:19.461Z,33.20
2019-05-10T15:55:48.788Z,32.90
2019-05-10T15:58:21.503Z,33.10
2019-05-10T16:00:54.018Z,33.10
2019-05-10T16:03:26.238Z,33.30
2019-05-10T16:06:00.639Z,33.50
2019-05-10T16:08:32.678Z,33.80
2019-05-10T16:11:05.467Z,33.50
2019-05-10T16:13:38.155Z,33.80
2019-05-10T16:16:22.574Z,33.70
2019-05-10T16:18:55.235Z,33.80
2019-05-10T16:21:28.648Z,34.10
2019-05-10T16:24:01.794Z,34.20
2019-05-10T16:26:35.186Z,34.40
2019-05-10T16:29:07.469Z,34.60
2019-05-10T16:31:39.663Z,35.00
2019-05-10T16:34:11.861Z,35.20
2019-05-10T16:36:44.207Z,35.30
2019-05-10T16:39:16.375Z,35.60
2019-05-10T16:41:48.840Z,35.90
2019-05-10T16:44:21.529Z,36.10
2019-05-10T16:46:53.857Z,36.40
2019-05-10T16:49:26.261Z,36.70
2019-05-10T16:51:58.602Z,37.30
2019-05-10T16:54:30.900Z,37.50
2019-05-10T16:57:03.197Z,37.60
2019-05-10T16:59:35.519Z,37.70
2019-05-10T17:02:07.827Z,38.00
2019-05-10T17:04:40.293Z,38.10
2019-05-10T17:07:18.483Z,38.30
2019-05-10T17:09:49.425Z,38.50
2019-05-10T17:12:22.074Z,38.50
2019-05-10T17:15:02.027Z,38.80
2019-05-10T17:17:37.042Z,38.90
2019-05-10T17:20:14.180Z,38.80
2019-05-10T17:22:42.382Z,39.00
2019-05-10T17:25:15.071Z,39.10
2019-05-10T17:27:50.753Z,39.30
2019-05-10T17:30:27.587Z,39.50
2019-05-10T17:32:57.815Z,39.50
2019-05-10T17:35:30.216Z,39.70
2019-05-10T17:38:08.000Z,39.80
2019-05-10T17:40:37.429Z,39.90
2019-05-10T17:43:14.212Z,40.10
2019-05-10T17:45:43.773Z,40.20
2019-05-10T17:48:16.019Z,40.30
2019-05-10T17:50:48.300Z,40.40
2019-05-10T17:53:20.698Z,40.40
2019-05-10T17:55:56.081Z,40.60
2019-05-10T17:58:33.009Z,40.60
2019-05-10T18:01:01.563Z,40.70
2019-05-10T18:03:33.862Z,40.90
2019-05-10T18:06:06.337Z,41.10
2019-05-10T18:08:38.510Z,41.10
2019-05-10T18:11:10.714Z,41.30
2019-05-10T18:13:42.982Z,41.50
2019-05-10T18:16:15.285Z,41.50
2019-05-10T18:18:48.567Z,41.70
2019-05-10T18:21:23.996Z,41.60
2019-05-10T18:23:58.168Z,41.80
2019-05-10T18:26:29.032Z,42.00
2019-05-10T18:29:02.349Z,42.10
2019-05-10T18:31:35.025Z,42.00
2019-05-10T18:34:07.280Z,42.30
2019-05-10T18:36:54.677Z,42.50
2019-05-10T18:39:15.576Z,42.50
2019-05-10T18:41:48.138Z,42.80
2019-05-10T18:44:20.606Z,42.90
2019-05-10T18:46:52.861Z,43.20
2019-05-10T18:49:25.138Z,43.20
2019-05-10T18:52:03.311Z,43.10
2019-05-10T18:54:31.514Z,43.20
2019-05-10T18:57:11.413Z,43.50
2019-05-10T18:59:39.892Z,43.50
2019-05-10T19:02:17.161Z,43.60
2019-05-10T19:04:51.239Z,43.60
2019-05-10T19:07:19.734Z,43.60
2019-05-10T19:09:52.014Z,43.70
2019-05-10T19:12:25.797Z,43.80
2019-05-10T19:15:02.123Z,43.60
2019-05-10T19:17:32.405Z,43.60
2019-05-10T19:20:09.634Z,43.60
2019-05-10T19:22:41.257Z,43.60
2019-05-10T19:25:14.472Z,43.60
2019-05-10T19:27:50.905Z,43.60
2019-05-10T19:30:23.988Z,43.70
2019-05-10T19:32:57.931Z,43.90
2019-05-10T19:35:35.700Z,43.90
2019-05-10T19:38:04.691Z,44.00
2019-05-10T19:40:37.166Z,43.90
2019-05-10T19:43:15.169Z,43.90
2019-05-10T19:45:45.683Z,44.20
2019-05-10T19:48:18.043Z,43.90
2019-05-10T19:50:50.413Z,44.00
2019-05-10T19:53:22.750Z,44.00
2019-05-10T19:55:57.212Z,44.20
2019-05-10T19:58:32.165Z,44.40
2019-05-10T20:01:03.700Z,43.90
2019-05-10T20:03:35.894Z,43.80
2019-05-10T20:06:10.022Z,44.20
2019-05-10T20:08:42.318Z,44.20
2019-05-10T20:11:15.001Z,44.30
2019-05-10T20:13:47.192Z,44.30
2019-05-10T20:16:19.551Z,44.60
2019-05-10T20:18:52.472Z,44.80
2019-05-10T20:21:25.271Z,45.00
2019-05-10T20:24:01.163Z,45.20
2019-05-10T20:26:33.939Z,45.10
2019-05-10T20:29:06.340Z,45.20
2019-05-10T20:31:39.690Z,45.30
2019-05-10T20:34:12.653Z,45.50
2019-05-10T20:36:45.353Z,45.40
2019-05-10T20:39:19.540Z,45.40
2019-05-10T20:41:51.822Z,45.50
2019-05-10T20:44:24.423Z,45.60
2019-05-10T20:46:56.726Z,45.50
2019-05-10T20:49:29.068Z,45.60
2019-05-10T20:52:01.607Z,45.80
2019-05-10T20:54:34.088Z,45.90
2019-05-10T20:57:06.469Z,46.40
2019-05-10T20:59:38.612Z,46.50
2019-05-10T21:02:10.965Z,46.90
2019-05-10T21:04:43.086Z,47.10
2019-05-10T21:07:15.359Z,47.20
2019-05-10T21:09:47.592Z,47.40
2019-05-10T21:12:19.826Z,47.50
2019-05-10T21:14:52.048Z,47.70
2019-05-10T21:17:24.604Z,47.90
2019-05-10T21:19:56.877Z,48.20
2019-05-10T21:22:29.214Z,48.20
2019-05-10T21:25:01.604Z,48.40
2019-05-10T21:27:34.091Z,48.50
2019-05-10T21:30:06.655Z,48.60
2019-05-10T21:32:39.743Z,48.70
2019-05-10T21:35:11.988Z,49.00
2019-05-10T21:37:45.338Z,49.00
2019-05-10T21:40:17.546Z,49.30
2019-05-10T21:42:50.033Z,49.60
2019-05-10T21:45:22.393Z,49.60
2019-05-10T21:47:54.513Z,49.80
2019-05-10T21:50:26.758Z,49.90
2019-05-10T21:52:59.136Z,50.00
2019-05-10T21:55:31.508Z,49.90
2019-05-10T21:58:03.853Z,50.20
2019-05-10T22:00:40.285Z,50.20
2019-05-10T22:03:12.785Z,50.30
2019-05-10T22:05:45.089Z,50.40
2019-05-10T22:08:17.362Z,50.60
2019-05-10T22:10:49.680Z,50.70
2019-05-10T22:13:22.141Z,50.70
2019-05-10T22:15:55.295Z,50.80
2019-05-10T22:18:27.697Z,50.80
2019-05-10T22:20:59.977Z,50.70
2019-05-10T22:23:32.245Z,51.10
2019-05-10T22:26:04.616Z,51.00
2019-05-10T22:28:36.809Z,51.00
2019-05-10T22:31:09.234Z,51.20
2019-05-10T22:33:41.629Z,51.20
2019-05-10T22:36:13.872Z,51.10
2019-05-10T22:38:46.144Z,50.90
2019-05-10T22:41:18.505Z,51.00
2019-05-10T22:43:50.917Z,50.90
2019-05-10T22:46:23.371Z,51.10
2019-05-10T22:48:55.885Z,51.30
2019-05-10T22:51:28.027Z,51.30
2019-05-10T22:54:00.487Z,51.20
2019-05-10T22:56:34.223Z,51.40
2019-05-10T22:59:06.704Z,51.40
2019-05-10T23:01:38.956Z,51.50
2019-05-10T23:04:11.487Z,51.60
2019-05-10T23:06:43.730Z,51.50
2019-05-10T23:09:24.566Z,51.60
2019-05-10T23:11:50.130Z,51.80
2019-05-10T23:14:22.674Z,51.90
2019-05-10T23:16:54.893Z,52.00
2019-05-10T23:19:27.192Z,52.00
2019-05-10T23:21:59.556Z,52.20
2019-05-10T23:24:39.226Z,52.40
2019-05-10T23:27:11.666Z,52.60
2019-05-10T23:29:43.903Z,52.60
2019-05-10T23:32:16.322Z,52.60
2019-05-10T23:34:48.727Z,52.70
2019-05-10T23:37:25.628Z,52.70
2019-05-10T23:39:57.992Z,52.70
2019-05-10T23:42:30.305Z,52.60
2019-05-10T23:45:02.527Z,52.80
2019-05-10T23:47:34.886Z,52.80
2019-05-10T23:50:07.389Z,52.80
2019-05-10T23:52:39.686Z,52.90
2019-05-10T23:55:12.055Z,52.90
2019-05-10T23:57:44.435Z,53.00
